Brunsville, Iowa
Current Conditions -  °F | °C
As of 4:15 AM on Sunday 26 Oct 2014 (Local Time) from KLRJ Reporting Station
Few Clouds Few Clouds  
Wind Chill: 50°   Ceiling: Unl
Heat Index: 50°   Visibility: 10mi
Dew Point: 34°   Wind: 10mph
Humidity: 54%   Direction: 100°E
Pressure: 29.95"   Gusts: 16mph
Location:  42.81°N, 96.27°W
Report Text: KLRJ 260915Z AUTO 10009G14KT 10SM FEW065 10/01 A2995 RMK AO2
Loading
Personal Weather Stations






























Interactive Weather Map
Tropical Storm Tracking
New forecast layout! Learn more

10-Day Weather Forecast

Advertisements
Track Severe Weather on mobile